Time,TemperatureF,DewpointF,PressureIn,WindDirection,WindDirectionDegrees,WindSpeedMPH,WindSpeedGustMPH,Humidity,HourlyPrecipIn,Conditions,Clouds,dailyrainin,SolarRadiationWatts/m^2,SoftwareType,DateUTC
2017-03-29 00:03:00,65.8,51.6,29.95,SSW,211,0.0,0.0,60,0.00,,,0.00,0.00,Weather logger V3.0.,2017-03-29 04:03:00,
2017-03-29 00:08:00,65.8,51.6,29.96,SSW,194,0.0,0.0,60,0.00,,,0.00,0.00,Weather logger V3.0.,2017-03-29 04:08:00,
2017-03-29 00:14:00,65.7,51.4,29.95,South,173,0.0,0.0,60,0.00,,,0.00,0.00,Weather logger V3.0.,2017-03-29 04:14:00,
2017-03-29 00:19:00,65.5,51.3,29.96,SSW,205,0.0,0.0,60,0.00,,,0.00,0.00,Weather logger V3.0.,2017-03-29 04:19:00,
2017-03-29 00:24:00,65.5,51.3,29.95,SW,231,0.0,0.0,60,0.00,,,0.00,0.00,Weather logger V3.0.,2017-03-29 04:24:00,
2017-03-29 00:29:00,65.3,51.1,29.95,West,267,0.0,0.0,60,0.00,,,0.00,0.00,Weather logger V3.0.,2017-03-29 04:29:00,
2017-03-29 00:34:00,64.9,51.3,29.96,South,188,0.0,0.0,61,0.00,,,0.00,0.00,Weather logger V3.0.,2017-03-29 04:34:00,
2017-03-29 00:39:00,64.8,51.1,29.96,SSE,154,0.0,0.0,61,0.00,,,0.00,0.00,Weather logger V3.0.,2017-03-29 04:39:00,
2017-03-29 00:44:00,64.6,50.9,29.95,SSE,164,0.0,0.0,61,0.00,,,0.00,0.00,Weather logger V3.0.,2017-03-29 04:44:00,
2017-03-29 00:49:00,64.4,51.1,29.95,SSE,156,0.0,0.0,62,0.00,,,0.00,0.00,Weather logger V3.0.,2017-03-29 04:49:00,
2017-03-29 00:54:00,64.2,50.9,29.95,SSW,213,0.0,0.0,62,0.00,,,0.00,0.00,Weather logger V3.0.,2017-03-29 04:54:00,
2017-03-29 01:00:00,64.0,50.4,29.95,SSW,205,0.0,0.0,61,0.00,,,0.00,0.00,Weather logger V3.0.,2017-03-29 05:00:00,
2017-03-29 01:05:00,63.9,50.7,29.95,South,187,0.0,0.0,62,0.00,,,0.00,0.00,Weather logger V3.0.,2017-03-29 05:05:00,
2017-03-29 01:10:00,63.7,50.5,29.95,SE,145,0.0,0.0,62,0.00,,,0.00,0.00,Weather logger V3.0.,2017-03-29 05:10:00,
2017-03-29 01:15:00,63.5,50.4,29.95,South,187,0.0,0.0,62,0.00,,,0.00,0.00,Weather logger V3.0.,2017-03-29 05:15:00,
2017-03-29 01:20:00,63.3,50.5,29.95,South,175,0.0,0.0,63,0.00,,,0.00,0.00,Weather logger V3.0.,2017-03-29 05:20:00,
2017-03-29 01:25:00,63.3,52.2,29.95,South,175,0.0,0.0,67,0.00,,,0.00,0.00,Weather logger V3.0.,2017-03-29 05:25:00,
2017-03-29 01:30:00,63.0,52.3,29.95,South,173,0.0,0.0,68,0.00,,,0.00,0.00,Weather logger V3.0.,2017-03-29 05:30:00,
2017-03-29 01:35:00,62.6,52.3,29.95,SSW,207,0.0,0.0,69,0.00,,,0.00,0.00,Weather logger V3.0.,2017-03-29 05:35:00,
2017-03-29 01:40:00,62.4,52.5,29.94,SW,232,0.0,0.0,70,0.00,,,0.00,0.00,Weather logger V3.0.,2017-03-29 05:40:00,
2017-03-29 01:45:00,62.1,52.2,29.95,SSW,210,0.0,0.0,70,0.00,,,0.00,0.00,Weather logger V3.0.,2017-03-29 05:45:00,
2017-03-29 01:50:00,61.7,51.8,29.95,SSW,195,0.0,0.0,70,0.00,,,0.00,0.00,Weather logger V3.0.,2017-03-29 05:50:00,
2017-03-29 01:55:00,61.2,51.3,29.95,South,189,0.0,0.0,70,0.00,,,0.00,0.00,Weather logger V3.0.,2017-03-29 05:55:00,
2017-03-29 02:00:00,60.8,51.8,29.95,SSW,192,0.0,0.0,72,0.00,,,0.00,0.00,Weather logger V3.0.,2017-03-29 06:00:00,
2017-03-29 02:05:00,60.3,52.7,29.95,SSW,192,0.0,0.0,76,0.00,,,0.00,0.00,Weather logger V3.0.,2017-03-29 06:05:00,
2017-03-29 02:10:00,59.9,53.4,29.95,South,189,0.0,0.0,79,0.00,,,0.00,0.00,Weather logger V3.0.,2017-03-29 06:10:00,
2017-03-29 02:16:00,59.5,52.7,29.95,SW,233,0.0,0.0,78,0.00,,,0.00,0.00,Weather logger V3.0.,2017-03-29 06:16:00,
2017-03-29 02:21:00,59.4,51.1,29.95,SW,219,0.0,0.0,74,0.00,,,0.00,0.00,Weather logger V3.0.,2017-03-29 06:21:00,